Ana Sayfa
METAR-TAF:

METAR-TAF

Havaalanları :

Rabat, Fas

Enlem: 34-03N, Boylam: 006-46W, yükseklik: 84 m

Güncel hava durumu gözlemi

Rapor saat 20:30 UTC de 25 dakika önce yapıldı.
Rüzgar kuzeybatıdan 5 kt, batı/kuzeybatı ve kuzey arasında değişken
Sıcaklık 17°C
Nem 88%
Basınç 1016 hPa
Görüş mesafesi 10 km veya daha fazla
1500 m altında bulut yok ve kümülonimbus yok

METAR: GMME 232030Z 32005KT 290V000 CAVOK 17/15 Q1016 NOSIG

Saat: 20:55 (20:55 UTC)

Tahmin

Ayın 23'si saat 17 UTC'den ayın 24'si saat 00 UTC'ye kadar geçerli Tahmin
Rüzgar kuzeydan 7 kt
Görüş mesafesi: 8000 m
Geçici
ayın 24'si saat 04 UTC'den ayın 24'si saat 08 UTC'ye kadar
Görüş mesafesi: 4000 m
Pus

TAF: GMME 231700 2318/2424 35007KT 8000 NSC TEMPO 2404/2408 4000 BR

4.000'den fazla havaalanı için hava durumu gözlemleri ve tahminleri (METAR ve TAF raporları).

Kullanılabilir istasyonlar harita üzerinde sarı ve kırmızı noktalarla gösterilir.

İstasyonun adını görmek için fareyi noktanın üzerinde gezdirin.

Sonrasında hava gözlem ve tahminlerini görmek için tıklayın.

Haritayı değiştirmek için: yaklaştırmak için siyah artı işaretli yeşil düğmeye ve uzaklaştırmak için de eksi işaretli düğmeye hızla tıklayın; bitişik haritalar için yeşil okları kullanın.


METAR-TAF: